createdAt,value
2022-11-29T00:01:14.133Z,74.60
2022-11-29T00:03:41.392Z,74.70
2022-11-29T00:06:11.206Z,74.60
2022-11-29T00:08:38.815Z,74.50
2022-11-29T00:11:07.298Z,74.70
2022-11-29T00:13:34.625Z,73.50
2022-11-29T00:16:11.975Z,73.20
2022-11-29T00:18:38.909Z,72.60
2022-11-29T00:21:07.043Z,72.70
2022-11-29T00:23:34.531Z,72.70
2022-11-29T00:26:06.800Z,73.30
2022-11-29T00:28:35.292Z,73.60
2022-11-29T00:31:16.192Z,73.70
2022-11-29T00:33:43.396Z,73.80
2022-11-29T00:36:10.647Z,74.10
2022-11-29T00:38:37.670Z,73.80
2022-11-29T00:41:04.715Z,73.60
2022-11-29T00:43:31.584Z,73.60
2022-11-29T00:45:58.555Z,73.40
2022-11-29T00:48:25.563Z,73.40
2022-11-29T00:50:52.352Z,73.30
2022-11-29T00:53:19.372Z,73.30
2022-11-29T00:55:49.156Z,73.40
2022-11-29T00:58:15.982Z,73.30
2022-11-29T01:00:42.949Z,73.30
2022-11-29T01:03:09.951Z,73.30
2022-11-29T01:05:36.821Z,73.30
2022-11-29T01:08:03.936Z,73.80
2022-11-29T01:10:30.822Z,73.80
2022-11-29T01:12:57.744Z,74.00
2022-11-29T01:15:24.623Z,74.20
2022-11-29T01:17:51.602Z,74.50
2022-11-29T01:20:18.488Z,74.50
2022-11-29T01:22:45.714Z,74.40
2022-11-29T01:25:13.750Z,74.50
2022-11-29T01:27:41.248Z,74.10
2022-11-29T01:30:10.385Z,73.90
2022-11-29T01:32:37.711Z,74.00
2022-11-29T01:35:05.907Z,74.30
2022-11-29T01:37:33.216Z,74.70
2022-11-29T01:40:00.115Z,75.50
2022-11-29T01:42:27.003Z,75.50
2022-11-29T01:45:15.891Z,75.90
2022-11-29T01:47:46.351Z,75.90
2022-11-29T01:50:14.208Z,75.80
2022-11-29T01:52:41.928Z,75.60
2022-11-29T01:55:10.034Z,75.80
2022-11-29T01:57:39.999Z,75.30
2022-11-29T02:00:18.506Z,75.20
2022-11-29T02:02:57.154Z,74.70
2022-11-29T02:05:25.444Z,74.80
2022-11-29T02:07:55.331Z,75.10
2022-11-29T02:10:33.972Z,75.50
2022-11-29T02:13:25.786Z,75.90
2022-11-29T02:19:11.177Z,76.40
2022-11-29T02:21:58.136Z,76.50
2022-11-29T02:24:31.210Z,76.70
2022-11-29T02:27:13.241Z,76.80
2022-11-29T03:44:34.423Z,75.10
2022-11-29T03:47:23.579Z,74.80
2022-11-29T03:51:00.983Z,74.40
2022-11-29T03:54:08.787Z,74.30
2022-11-29T05:43:05.342Z,73.60
2022-11-29T05:46:54.429Z,73.60
2022-11-29T05:49:46.438Z,73.70
2022-11-29T05:52:58.624Z,73.80
2022-11-29T05:55:45.045Z,74.00
2022-11-29T05:58:45.195Z,74.20
2022-11-29T06:01:32.592Z,74.30
2022-11-29T06:04:14.559Z,74.10
2022-11-29T06:07:07.434Z,74.10
2022-11-29T06:09:49.897Z,74.20
2022-11-29T06:12:21.559Z,74.20
2022-11-29T06:15:16.466Z,74.00
2022-11-29T06:18:35.072Z,74.00
2022-11-29T06:21:26.362Z,73.80
2022-11-29T06:24:01.112Z,73.90
2022-11-29T06:26:44.845Z,74.00
2022-11-29T06:29:47.963Z,73.80
2022-11-29T06:32:27.391Z,73.70
2022-11-29T06:35:07.211Z,73.70
2022-11-29T06:37:50.539Z,73.90
2022-11-29T06:40:18.277Z,74.10
2022-11-29T06:42:45.210Z,74.10
2022-11-29T06:45:14.479Z,74.20
2022-11-29T06:47:57.703Z,74.00
2022-11-29T06:50:56.022Z,73.80
2022-11-29T06:53:41.805Z,73.70
2022-11-29T06:56:33.236Z,73.50
2022-11-29T06:59:00.117Z,73.70
2022-11-29T07:01:51.026Z,73.90
2022-11-29T07:04:55.784Z,73.70
2022-11-29T07:07:23.844Z,73.60
2022-11-29T07:09:54.137Z,73.60
2022-11-29T07:12:21.412Z,74.10
2022-11-29T07:14:57.751Z,75.50
2022-11-29T07:17:43.503Z,76.10
2022-11-29T07:20:34.432Z,75.00
2022-11-29T07:23:44.199Z,73.90
2022-11-29T07:26:17.327Z,73.40
2022-11-29T07:29:03.182Z,72.90
2022-11-29T07:31:48.120Z,72.70
2022-11-29T07:34:51.363Z,72.60
2022-11-29T07:37:45.573Z,72.60
2022-11-29T07:40:24.544Z,72.50
2022-11-29T07:42:51.385Z,72.30
2022-11-29T07:45:37.808Z,72.20
2022-11-29T07:48:05.168Z,72.60
2022-11-29T07:50:33.146Z,72.40
2022-11-29T07:53:00.730Z,72.30
2022-11-29T07:55:28.335Z,72.10
2022-11-29T07:57:56.028Z,72.40
2022-11-29T08:00:23.337Z,72.00
2022-11-29T08:02:51.325Z,71.90
2022-11-29T08:05:19.069Z,71.90
2022-11-29T08:07:47.688Z,71.60
2022-11-29T08:10:16.709Z,71.60
2022-11-29T08:12:47.516Z,71.90
2022-11-29T08:15:15.607Z,71.80
2022-11-29T08:17:43.056Z,71.80
2022-11-29T08:20:11.506Z,71.70
2022-11-29T08:22:38.673Z,71.90
2022-11-29T08:25:10.049Z,71.40
2022-11-29T08:27:40.265Z,71.60
2022-11-29T08:30:11.358Z,71.80
2022-11-29T08:32:38.213Z,71.90
2022-11-29T08:35:05.278Z,72.10
2022-11-29T08:37:33.105Z,72.50
2022-11-29T08:40:00.045Z,72.60
2022-11-29T08:42:27.369Z,72.60
2022-11-29T08:44:54.215Z,72.50
2022-11-29T08:47:36.092Z,72.60
2022-11-29T08:50:12.416Z,72.20
2022-11-29T08:53:06.690Z,71.90
2022-11-29T08:55:36.714Z,72.00
2022-11-29T08:58:09.118Z,71.80
2022-11-29T09:00:36.511Z,71.50
2022-11-29T09:03:23.360Z,71.40
2022-11-29T09:05:50.307Z,71.20
2022-11-29T09:08:17.332Z,71.30
2022-11-29T09:10:44.833Z,70.80
2022-11-29T09:13:13.357Z,71.10
2022-11-29T09:15:44.425Z,70.90
2022-11-29T09:18:11.393Z,71.30
2022-11-29T09:20:38.240Z,71.40
2022-11-29T09:23:05.182Z,71.20
2022-11-29T09:25:32.262Z,71.10
2022-11-29T09:28:02.822Z,71.00
2022-11-29T09:30:31.518Z,70.80
2022-11-29T09:33:05.104Z,70.40
2022-11-29T09:35:32.960Z,70.10
2022-11-29T09:38:00.205Z,70.00
2022-11-29T09:40:43.761Z,70.00
2022-11-29T09:43:20.749Z,69.90
2022-11-29T09:45:51.092Z,69.70
2022-11-29T09:48:26.272Z,70.00
2022-11-29T09:51:44.018Z,69.70
2022-11-29T09:54:38.673Z,69.30
2022-11-29T09:57:10.877Z,69.60
2022-11-29T09:59:42.853Z,70.30
2022-11-29T10:02:37.605Z,70.60
2022-11-29T10:05:15.236Z,70.90
2022-11-29T10:08:06.159Z,71.20
2022-11-29T10:10:45.257Z,71.20
2022-11-29T10:13:35.005Z,71.40
2022-11-29T10:16:12.306Z,71.20
2022-11-29T10:19:01.127Z,71.20
2022-11-29T10:21:36.699Z,71.40
2022-11-29T10:24:10.804Z,71.30
2022-11-29T10:26:38.178Z,71.30
2022-11-29T10:29:04.990Z,71.20
2022-11-29T10:31:42.902Z,70.70
2022-11-29T10:34:18.876Z,69.90
2022-11-29T10:36:47.688Z,69.40
2022-11-29T10:39:25.429Z,69.00
2022-11-29T10:41:56.572Z,68.60
2022-11-29T10:44:24.660Z,67.10
2022-11-29T10:46:52.427Z,67.50
2022-11-29T10:49:23.385Z,67.50
2022-11-29T10:51:50.304Z,67.60
2022-11-29T10:54:27.275Z,67.70
2022-11-29T10:56:57.486Z,67.40
2022-11-29T10:59:26.935Z,66.90
2022-11-29T11:01:54.811Z,67.00
2022-11-29T11:04:45.237Z,67.00
2022-11-29T11:07:41.788Z,67.10
2022-11-29T11:10:26.693Z,66.80
2022-11-29T11:13:06.763Z,66.90
2022-11-29T11:15:33.989Z,66.90
2022-11-29T11:18:05.112Z,67.00
2022-11-29T11:20:34.810Z,66.80
2022-11-29T11:23:03.559Z,66.90
2022-11-29T11:25:40.562Z,66.60
2022-11-29T11:28:21.249Z,66.20
2022-11-29T11:30:56.100Z,66.30
2022-11-29T11:33:31.214Z,66.00
2022-11-29T11:36:10.219Z,66.00
2022-11-29T11:39:02.409Z,66.10
2022-11-29T11:41:49.847Z,66.00
2022-11-29T11:44:47.934Z,66.10
2022-11-29T11:47:29.781Z,65.90
2022-11-29T11:50:02.589Z,65.40
2022-11-29T11:52:39.857Z,65.00
2022-11-29T11:55:39.473Z,64.80
2022-11-29T11:58:14.294Z,64.60
2022-11-29T12:01:09.909Z,64.90
2022-11-29T12:03:49.794Z,64.80
2022-11-29T12:06:39.737Z,64.50
2022-11-29T12:09:23.005Z,64.80
2022-11-29T12:12:40.548Z,64.80
2022-11-29T12:15:17.506Z,64.80
2022-11-29T12:17:56.104Z,64.70
2022-11-29T12:20:32.776Z,64.60
2022-11-29T12:23:21.822Z,65.60
2022-11-29T12:26:55.227Z,64.80
2022-11-29T12:29:19.234Z,65.10
2022-11-29T12:31:55.292Z,65.30
2022-11-29T12:34:52.314Z,65.10
2022-11-29T12:37:42.736Z,65.10
2022-11-29T12:40:42.809Z,66.00
2022-11-29T12:43:39.141Z,65.30
2022-11-29T12:46:13.231Z,65.10
2022-11-29T12:48:58.272Z,65.00
2022-11-29T12:51:46.881Z,65.10
2022-11-29T12:54:29.874Z,64.80
2022-11-29T12:57:32.087Z,64.50
2022-11-29T13:00:06.348Z,64.10
2022-11-29T13:02:45.143Z,63.70
2022-11-29T13:05:12.010Z,63.30
2022-11-29T13:07:38.806Z,63.20
2022-11-29T13:10:36.614Z,63.20
2022-11-29T13:13:38.811Z,64.10
2022-11-29T13:16:22.003Z,63.30
2022-11-29T13:18:59.943Z,63.00
2022-11-29T13:21:53.662Z,62.80
2022-11-29T13:24:28.631Z,62.70
2022-11-29T13:26:56.347Z,62.60
2022-11-29T13:29:24.039Z,62.60
2022-11-29T13:31:51.652Z,62.40
2022-11-29T13:34:28.308Z,62.60
2022-11-29T13:37:29.726Z,62.90
2022-11-29T13:40:04.667Z,63.30
2022-11-29T13:43:00.034Z,63.30
2022-11-29T13:45:51.382Z,63.20
2022-11-29T13:48:43.995Z,63.10
2022-11-29T13:51:25.295Z,63.10
2022-11-29T13:53:54.114Z,63.00
2022-11-29T13:56:26.386Z,63.10
2022-11-29T13:58:54.652Z,63.20
2022-11-29T14:01:23.364Z,63.10
2022-11-29T14:04:04.156Z,62.90
2022-11-29T14:06:38.789Z,63.40
2022-11-29T14:09:28.144Z,63.70
2022-11-29T14:12:02.014Z,63.90
2022-11-29T14:14:49.208Z,63.80
2022-11-29T14:17:45.490Z,64.00
2022-11-29T14:20:30.465Z,64.20
2022-11-29T14:23:13.867Z,64.30
2022-11-29T14:26:02.672Z,64.30
2022-11-29T14:28:29.460Z,64.60
2022-11-29T14:31:01.812Z,64.70
2022-11-29T14:33:47.211Z,64.70
2022-11-29T14:36:35.589Z,64.80
2022-11-29T14:39:29.259Z,65.20
2022-11-29T14:42:19.077Z,65.20
2022-11-29T14:44:51.560Z,66.10
2022-11-29T14:47:24.136Z,65.60
2022-11-29T14:49:52.977Z,65.80
2022-11-29T14:52:31.382Z,66.00
2022-11-29T14:55:06.825Z,66.10
2022-11-29T14:57:54.879Z,66.00
2022-11-29T15:00:29.264Z,65.80
2022-11-29T15:03:17.063Z,65.40
2022-11-29T15:05:56.524Z,65.40
2022-11-29T15:08:38.348Z,65.70
2022-11-29T15:11:33.067Z,65.70
2022-11-29T15:14:12.397Z,66.00
2022-11-29T15:16:54.298Z,66.10
2022-11-29T15:19:52.705Z,66.20
2022-11-29T15:22:26.433Z,66.30
2022-11-29T15:25:00.152Z,66.40
2022-11-29T15:27:28.171Z,66.20
2022-11-29T15:29:55.578Z,66.10
2022-11-29T15:32:25.636Z,66.30
2022-11-29T15:34:55.531Z,66.20
2022-11-29T15:37:23.815Z,66.30
2022-11-29T15:40:03.513Z,66.30
2022-11-29T15:42:41.745Z,66.10
2022-11-29T15:45:35.495Z,66.30
2022-11-29T15:48:12.898Z,66.40
2022-11-29T15:50:46.312Z,66.60
2022-11-29T15:53:19.737Z,66.90
2022-11-29T15:55:50.507Z,67.40
2022-11-29T15:58:18.491Z,66.70
2022-11-29T16:00:50.002Z,66.70
2022-11-29T16:03:26.573Z,66.60
2022-11-29T16:06:01.895Z,66.30
2022-11-29T16:08:33.141Z,66.50
2022-11-29T16:11:00.511Z,66.80
2022-11-29T16:13:35.238Z,66.80
2022-11-29T16:16:08.147Z,67.30
2022-11-29T16:18:36.285Z,66.60
2022-11-29T16:21:05.733Z,66.80
2022-11-29T16:23:37.172Z,66.80
2022-11-29T16:26:36.455Z,66.60
2022-11-29T16:29:26.862Z,66.70
2022-11-29T16:32:00.239Z,66.70
2022-11-29T16:34:33.928Z,66.60
2022-11-29T16:37:16.901Z,66.70
2022-11-29T16:39:47.356Z,66.80
2022-11-29T16:42:25.302Z,67.00
2022-11-29T16:45:02.578Z,67.10
2022-11-29T16:47:31.682Z,67.30
2022-11-29T16:50:01.734Z,67.40
2022-11-29T16:52:40.405Z,67.60
2022-11-29T16:55:10.583Z,67.60
2022-11-29T16:57:42.482Z,67.40
2022-11-29T17:00:45.139Z,67.70
2022-11-29T17:03:15.166Z,67.70
2022-11-29T17:05:45.148Z,67.90
2022-11-29T17:08:12.561Z,67.80
2022-11-29T17:10:42.436Z,67.60
2022-11-29T17:13:13.280Z,67.60
2022-11-29T17:15:40.141Z,67.70
2022-11-29T17:18:07.115Z,67.90
2022-11-29T17:20:34.160Z,67.50
2022-11-29T17:23:01.485Z,67.50
2022-11-29T17:25:28.731Z,67.40
2022-11-29T17:27:56.324Z,67.30
2022-11-29T17:30:23.553Z,67.70
2022-11-29T17:32:50.737Z,74.80
2022-11-29T17:35:17.634Z,75.10
2022-11-29T17:37:48.305Z,71.70
2022-11-29T17:40:15.506Z,70.60
2022-11-29T17:42:42.317Z,69.50
2022-11-29T17:45:09.812Z,68.40
2022-11-29T17:47:36.620Z,68.00
2022-11-29T17:50:03.756Z,68.50
2022-11-29T17:52:33.368Z,67.20
2022-11-29T17:55:00.366Z,67.00
2022-11-29T17:57:30.051Z,66.80
2022-11-29T17:59:57.684Z,66.60
2022-11-29T18:02:24.580Z,67.30
2022-11-29T18:04:51.547Z,67.00
2022-11-29T18:07:20.688Z,67.00
2022-11-29T18:09:49.041Z,67.10
2022-11-29T18:12:16.001Z,67.10
2022-11-29T18:14:43.069Z,67.10
2022-11-29T18:17:10.045Z,67.00
2022-11-29T18:19:37.473Z,67.70
2022-11-29T18:22:04.509Z,67.20
2022-11-29T18:24:31.429Z,66.80
2022-11-29T18:27:03.686Z,66.50
2022-11-29T18:29:37.549Z,66.40
2022-11-29T18:32:05.946Z,66.50
2022-11-29T18:34:32.849Z,66.50
2022-11-29T18:36:59.651Z,66.60
2022-11-29T18:39:26.586Z,66.70
2022-11-29T18:41:53.686Z,66.80
2022-11-29T18:44:21.839Z,66.70
2022-11-29T18:46:48.795Z,66.60
2022-11-29T18:49:17.622Z,66.30
2022-11-29T18:51:46.306Z,66.30
2022-11-29T18:54:56.281Z,66.50
2022-11-29T18:57:51.036Z,66.50
2022-11-29T19:00:21.208Z,66.50
2022-11-29T19:02:50.665Z,66.40
2022-11-29T19:05:34.166Z,66.20
2022-11-29T19:08:08.400Z,66.60
2022-11-29T19:10:38.895Z,66.40
2022-11-29T19:13:08.791Z,66.30
2022-11-29T19:15:37.488Z,66.50
2022-11-29T19:18:04.892Z,66.40
2022-11-29T19:20:43.867Z,66.80
2022-11-29T19:23:16.270Z,67.10
2022-11-29T19:25:43.623Z,67.00
2022-11-29T19:28:14.093Z,67.10
2022-11-29T19:30:42.487Z,67.10
2022-11-29T19:33:09.382Z,67.10
2022-11-29T19:35:36.568Z,66.80
2022-11-29T19:38:03.616Z,66.90
2022-11-29T19:40:30.906Z,67.20
2022-11-29T19:42:57.840Z,66.80
2022-11-29T19:45:24.941Z,67.00
2022-11-29T19:47:53.440Z,67.20
2022-11-29T19:50:20.505Z,67.30
2022-11-29T19:52:47.490Z,67.30
2022-11-29T19:55:14.585Z,67.00
2022-11-29T19:57:41.448Z,67.60
2022-11-29T20:00:09.162Z,67.60
2022-11-29T20:02:38.850Z,67.50
2022-11-29T20:05:06.574Z,67.60
2022-11-29T20:07:33.674Z,67.30
2022-11-29T20:10:00.920Z,67.30
2022-11-29T20:12:29.720Z,67.60
2022-11-29T20:14:57.086Z,68.00
2022-11-29T20:17:24.053Z,68.10
2022-11-29T20:19:51.079Z,68.20
2022-11-29T20:22:18.071Z,68.10
2022-11-29T20:24:45.755Z,68.70
2022-11-29T20:27:13.191Z,68.10
2022-11-29T20:29:41.267Z,68.60
2022-11-29T20:32:08.319Z,68.20
2022-11-29T20:34:35.760Z,68.10
2022-11-29T20:37:30.406Z,68.00
2022-11-29T20:40:02.069Z,68.30
2022-11-29T20:42:28.966Z,67.90
2022-11-29T20:44:57.901Z,67.90
2022-11-29T20:47:52.902Z,68.10
2022-11-29T20:50:26.216Z,68.10
2022-11-29T20:53:21.241Z,68.30
2022-11-29T20:55:49.704Z,68.30
2022-11-29T20:58:18.299Z,68.10
2022-11-29T21:00:45.955Z,68.30
2022-11-29T21:03:14.707Z,68.50
2022-11-29T21:05:42.145Z,68.40
2022-11-29T21:08:08.967Z,68.30
2022-11-29T21:10:36.995Z,68.50
2022-11-29T21:13:04.054Z,68.40
2022-11-29T21:15:31.413Z,68.20
2022-11-29T21:17:58.575Z,68.20
2022-11-29T21:20:27.656Z,68.20
2022-11-29T21:23:03.418Z,68.30
2022-11-29T21:25:52.590Z,68.50
2022-11-29T21:28:24.438Z,68.60
2022-11-29T21:30:51.798Z,68.60
2022-11-29T21:33:18.863Z,68.70
2022-11-29T21:35:48.223Z,68.70
2022-11-29T21:38:20.491Z,69.10
2022-11-29T21:40:47.744Z,68.70
2022-11-29T21:43:14.631Z,68.80
2022-11-29T21:45:41.496Z,68.80
2022-11-29T21:48:28.322Z,69.00
2022-11-29T21:50:56.349Z,69.20
2022-11-29T21:53:23.695Z,69.10
2022-11-29T21:55:56.870Z,73.80
2022-11-29T21:58:24.209Z,73.00
2022-11-29T22:00:51.257Z,71.20
2022-11-29T22:03:18.299Z,70.60
2022-11-29T22:05:45.271Z,70.00
2022-11-29T22:08:13.562Z,69.80
2022-11-29T22:10:41.362Z,69.80
2022-11-29T22:13:08.446Z,69.70
2022-11-29T22:15:35.289Z,69.60
2022-11-29T22:18:02.199Z,69.80
2022-11-29T22:20:29.025Z,69.80
2022-11-29T22:22:58.818Z,69.90
2022-11-29T22:25:25.948Z,69.90
2022-11-29T22:27:52.786Z,69.80
2022-11-29T22:30:20.012Z,69.80
2022-11-29T22:32:46.903Z,69.90
2022-11-29T22:35:14.046Z,70.00
2022-11-29T22:37:40.968Z,70.00
2022-11-29T22:40:08.329Z,69.90
2022-11-29T22:42:35.172Z,69.90
2022-11-29T22:45:04.160Z,69.80
2022-11-29T22:47:31.134Z,70.00
2022-11-29T22:49:58.058Z,69.80
2022-11-29T22:52:24.989Z,70.10
2022-11-29T22:54:51.930Z,70.50
2022-11-29T22:57:18.920Z,70.00
2022-11-29T22:59:45.731Z,70.00
2022-11-29T23:02:12.778Z,70.00
2022-11-29T23:04:39.689Z,70.20
2022-11-29T23:07:06.676Z,70.30
2022-11-29T23:09:33.530Z,70.30
2022-11-29T23:12:00.393Z,70.30
2022-11-29T23:14:27.263Z,70.30
2022-11-29T23:16:55.168Z,70.50
2022-11-29T23:19:22.096Z,70.10
2022-11-29T23:21:49.123Z,70.30
2022-11-29T23:24:16.459Z,70.20
2022-11-29T23:26:45.706Z,70.40
2022-11-29T23:29:15.986Z,70.60
2022-11-29T23:31:43.424Z,70.70
2022-11-29T23:34:10.579Z,70.90
2022-11-29T23:36:37.468Z,71.20
2022-11-29T23:39:06.650Z,71.00
2022-11-29T23:41:34.792Z,71.10
2022-11-29T23:44:03.967Z,71.00
2022-11-29T23:46:31.947Z,71.00
2022-11-29T23:48:58.856Z,71.30
2022-11-29T23:51:26.124Z,71.30
2022-11-29T23:53:53.876Z,71.10
2022-11-29T23:56:22.543Z,71.70
2022-11-29T23:58:49.976Z,71.80
